createdAt,value
2022-12-06T00:02:12.234Z,4.70
2022-12-06T00:04:38.994Z,4.50
2022-12-06T00:07:05.706Z,4.50
2022-12-06T00:09:32.587Z,4.60
2022-12-06T00:12:00.308Z,4.50
2022-12-06T00:14:27.203Z,4.50
2022-12-06T00:16:54.395Z,4.50
2022-12-06T00:19:23.555Z,4.50
2022-12-06T00:21:50.653Z,4.50
2022-12-06T00:24:20.511Z,4.40
2022-12-06T00:26:49.240Z,4.50
2022-12-06T00:29:21.626Z,4.50
2022-12-06T00:31:49.484Z,4.60
2022-12-06T00:34:16.226Z,4.60
2022-12-06T00:36:43.846Z,4.60
2022-12-06T00:39:15.748Z,4.60
2022-12-06T00:41:42.917Z,4.50
2022-12-06T00:44:10.416Z,4.60
2022-12-06T00:46:38.001Z,4.60
2022-12-06T00:49:07.089Z,4.60
2022-12-06T00:51:35.144Z,4.60
2022-12-06T00:54:02.770Z,4.60
2022-12-06T00:56:29.801Z,4.60
2022-12-06T00:58:56.592Z,4.60
2022-12-06T01:01:26.506Z,4.60
2022-12-06T01:03:57.164Z,4.60
2022-12-06T01:06:27.993Z,4.70
2022-12-06T01:09:00.294Z,4.60
2022-12-06T01:11:28.319Z,4.70
2022-12-06T01:13:55.615Z,4.70
2022-12-06T01:16:24.918Z,4.70
2022-12-06T01:18:54.742Z,4.80
2022-12-06T01:21:23.168Z,4.70
2022-12-06T01:23:50.003Z,4.80
2022-12-06T01:26:22.848Z,4.70
2022-12-06T01:28:49.886Z,4.80
2022-12-06T01:31:16.969Z,4.80
2022-12-06T01:33:44.676Z,4.80
2022-12-06T01:36:20.131Z,4.80
2022-12-06T01:39:10.243Z,4.70
2022-12-06T01:41:37.809Z,4.70
2022-12-06T01:44:05.029Z,4.80
2022-12-06T01:46:41.666Z,4.80
2022-12-06T01:49:20.787Z,4.80
2022-12-06T01:51:53.984Z,4.80
2022-12-06T01:54:23.624Z,4.80
2022-12-06T01:56:52.241Z,4.90
2022-12-06T01:59:20.292Z,4.80
2022-12-06T02:01:47.593Z,4.90
2022-12-06T02:04:16.393Z,4.90
2022-12-06T02:06:43.843Z,4.90
2022-12-06T02:09:11.719Z,5.00
2022-12-06T02:11:38.778Z,5.00
2022-12-06T02:14:09.765Z,5.00
2022-12-06T02:16:51.569Z,5.00
2022-12-06T02:20:00.026Z,4.90
2022-12-06T02:23:21.141Z,5.00
2022-12-06T02:26:11.906Z,4.90
2022-12-06T02:29:03.415Z,5.00
2022-12-06T02:31:44.872Z,5.00
2022-12-06T02:34:20.508Z,5.00
2022-12-06T02:37:03.834Z,5.00
2022-12-06T02:39:50.944Z,5.00
2022-12-06T02:42:20.154Z,5.00
2022-12-06T02:45:01.719Z,5.00
2022-12-06T02:47:33.971Z,5.00
2022-12-06T02:50:03.517Z,5.00
2022-12-06T02:52:32.002Z,4.90
2022-12-06T02:55:01.212Z,4.90
2022-12-06T02:57:42.688Z,4.90
2022-12-06T03:00:31.239Z,4.90
2022-12-06T03:03:36.961Z,4.90
2022-12-06T03:06:15.146Z,4.80
2022-12-06T03:08:52.667Z,4.80
2022-12-06T03:11:19.733Z,4.90
2022-12-06T03:14:03.288Z,4.80
2022-12-06T03:16:41.285Z,4.70
2022-12-06T03:19:21.750Z,4.60
2022-12-06T03:22:00.266Z,4.70
2022-12-06T03:24:30.587Z,4.80
2022-12-06T03:26:59.696Z,4.80
2022-12-06T03:29:30.484Z,4.80
2022-12-06T03:32:01.431Z,4.80
2022-12-06T03:34:36.285Z,4.90
2022-12-06T03:37:05.874Z,4.90
2022-12-06T03:39:43.204Z,5.00
2022-12-06T03:42:10.610Z,4.90
2022-12-06T03:44:37.686Z,4.90
2022-12-06T03:47:28.505Z,5.00
2022-12-06T03:50:07.675Z,4.90
2022-12-06T03:52:34.399Z,4.90
2022-12-06T03:55:01.096Z,4.90
2022-12-06T03:57:27.888Z,5.00
2022-12-06T03:59:54.574Z,5.00
2022-12-06T04:02:21.236Z,5.00
2022-12-06T04:04:49.148Z,4.90
2022-12-06T04:07:15.935Z,4.90
2022-12-06T04:10:03.605Z,4.90
2022-12-06T04:12:53.447Z,4.80
2022-12-06T04:15:21.806Z,4.80
2022-12-06T04:18:07.282Z,4.70
2022-12-06T04:20:54.671Z,4.80
2022-12-06T04:23:21.618Z,4.80
2022-12-06T04:25:48.748Z,4.70
2022-12-06T04:28:34.105Z,4.80
2022-12-06T04:31:22.220Z,4.90
2022-12-06T04:34:09.058Z,4.80
2022-12-06T04:36:55.721Z,4.80
2022-12-06T04:39:22.587Z,4.80
2022-12-06T04:42:08.031Z,4.90
2022-12-06T04:44:35.004Z,4.90
2022-12-06T04:47:02.094Z,4.90
2022-12-06T04:49:28.837Z,4.90
2022-12-06T04:51:55.901Z,4.80
2022-12-06T04:54:24.090Z,4.90
2022-12-06T04:56:50.925Z,4.80
2022-12-06T04:59:17.849Z,4.70
2022-12-06T05:01:44.725Z,4.80
2022-12-06T05:04:11.442Z,4.80
2022-12-06T05:06:38.165Z,4.80
2022-12-06T05:09:05.097Z,4.90
2022-12-06T05:11:32.031Z,4.90
2022-12-06T05:14:00.466Z,4.90
2022-12-06T05:16:27.365Z,4.90
2022-12-06T05:18:54.007Z,4.90
2022-12-06T05:21:23.042Z,4.80
2022-12-06T05:23:50.147Z,4.80
2022-12-06T05:26:19.965Z,4.80
2022-12-06T05:28:47.500Z,4.70
2022-12-06T05:31:15.093Z,4.70
2022-12-06T05:33:42.035Z,4.70
2022-12-06T05:36:14.670Z,4.70
2022-12-06T05:38:41.531Z,4.70
2022-12-06T05:41:09.016Z,4.60
2022-12-06T05:43:35.763Z,4.70
2022-12-06T05:46:02.746Z,4.70
2022-12-06T05:48:29.617Z,4.70
2022-12-06T05:50:56.303Z,4.80
2022-12-06T05:53:23.105Z,4.80
2022-12-06T05:55:50.237Z,4.80
2022-12-06T05:58:17.640Z,4.60
2022-12-06T06:00:50.552Z,4.50
2022-12-06T06:03:17.966Z,4.50
2022-12-06T06:05:50.011Z,4.40
2022-12-06T06:08:19.543Z,4.40
2022-12-06T06:10:46.225Z,4.40
2022-12-06T06:13:12.856Z,4.40
2022-12-06T06:15:39.513Z,4.30
2022-12-06T06:18:06.223Z,4.50
2022-12-06T06:20:33.051Z,4.50
2022-12-06T06:22:59.727Z,4.40
2022-12-06T06:25:26.535Z,4.40
2022-12-06T06:27:54.458Z,4.40
2022-12-06T06:30:21.590Z,4.40
2022-12-06T06:32:48.277Z,4.40
2022-12-06T06:35:14.915Z,4.40
2022-12-06T06:37:41.545Z,4.40
2022-12-06T06:40:08.722Z,4.30
2022-12-06T06:42:35.351Z,4.30
2022-12-06T06:45:03.991Z,4.40
2022-12-06T06:47:30.948Z,4.30
2022-12-06T06:49:57.757Z,4.30
2022-12-06T06:52:24.559Z,4.30
2022-12-06T06:54:51.218Z,4.30
2022-12-06T06:57:18.475Z,4.30
2022-12-06T06:59:46.017Z,4.40
2022-12-06T07:02:14.614Z,4.30
2022-12-06T07:04:42.288Z,4.30
2022-12-06T07:07:09.080Z,4.40
2022-12-06T07:09:35.878Z,4.40
2022-12-06T07:12:02.654Z,4.20
2022-12-06T07:14:29.348Z,4.10
2022-12-06T07:16:56.145Z,4.10
2022-12-06T07:19:22.889Z,4.20
2022-12-06T07:21:49.588Z,4.20
2022-12-06T07:24:16.363Z,4.20
2022-12-06T07:26:43.058Z,4.10
2022-12-06T07:29:09.793Z,4.10
2022-12-06T07:31:36.532Z,4.10
2022-12-06T07:34:03.538Z,4.10
2022-12-06T07:36:32.022Z,4.10
2022-12-06T07:39:00.342Z,4.10
2022-12-06T07:41:47.635Z,4.10
2022-12-06T07:44:35.091Z,4.10
2022-12-06T07:47:02.489Z,4.00
2022-12-06T07:49:29.900Z,4.00
2022-12-06T07:51:57.268Z,4.00
2022-12-06T07:54:24.536Z,4.10
2022-12-06T07:56:51.781Z,4.10
2022-12-06T07:59:18.575Z,4.10
2022-12-06T08:01:45.335Z,4.20
2022-12-06T08:04:12.273Z,4.10
2022-12-06T08:06:39.543Z,4.10
2022-12-06T08:09:06.882Z,4.00
2022-12-06T08:11:34.241Z,4.00
2022-12-06T08:14:01.103Z,4.00
2022-12-06T08:16:28.295Z,4.00
2022-12-06T08:18:55.626Z,4.00
2022-12-06T08:21:22.603Z,4.00
2022-12-06T08:23:49.236Z,4.10
2022-12-06T08:26:18.610Z,4.00
2022-12-06T08:28:45.304Z,4.00
2022-12-06T08:31:21.092Z,4.00
2022-12-06T08:33:48.750Z,4.00
2022-12-06T08:36:18.454Z,4.10
2022-12-06T08:38:45.747Z,4.10
2022-12-06T08:41:51.383Z,4.00
2022-12-06T08:44:19.574Z,4.20
2022-12-06T08:46:46.831Z,4.30
2022-12-06T08:49:15.124Z,4.30
2022-12-06T08:51:42.489Z,4.30
2022-12-06T08:54:13.708Z,4.30
2022-12-06T08:56:40.450Z,4.20
2022-12-06T08:59:07.603Z,4.30
2022-12-06T09:01:38.184Z,4.30
2022-12-06T09:04:07.302Z,4.30
2022-12-06T09:06:34.374Z,4.20
2022-12-06T09:09:01.014Z,4.30
2022-12-06T09:11:27.844Z,4.30
2022-12-06T09:13:54.521Z,4.30
2022-12-06T09:16:23.334Z,4.30
2022-12-06T09:18:51.521Z,4.20
2022-12-06T09:21:21.861Z,4.30
2022-12-06T09:23:49.911Z,4.20
2022-12-06T09:26:17.412Z,4.30
2022-12-06T09:28:45.910Z,4.40
2022-12-06T09:31:12.638Z,4.40
2022-12-06T09:33:39.381Z,4.30
2022-12-06T09:36:21.464Z,4.30
2022-12-06T09:38:56.176Z,4.40
2022-12-06T09:41:43.960Z,4.30
2022-12-06T09:44:25.664Z,4.20
2022-12-06T09:47:28.549Z,4.10
2022-12-06T09:50:05.326Z,4.10
2022-12-06T09:52:50.922Z,4.20
2022-12-06T09:56:04.112Z,4.30
2022-12-06T09:58:40.925Z,4.30
2022-12-06T10:01:16.507Z,4.40
2022-12-06T10:03:56.740Z,4.50
2022-12-06T10:06:27.091Z,4.50
2022-12-06T10:09:26.990Z,4.50
2022-12-06T10:11:56.442Z,4.50
2022-12-06T10:14:27.023Z,4.30
2022-12-06T10:17:03.652Z,4.40
2022-12-06T10:19:51.820Z,4.40
2022-12-06T10:22:30.396Z,4.40
2022-12-06T10:25:10.490Z,4.40
2022-12-06T10:27:39.442Z,4.50
2022-12-06T10:30:12.804Z,4.50
2022-12-06T10:32:52.564Z,4.40
2022-12-06T10:35:28.508Z,4.40
2022-12-06T10:38:16.414Z,4.30
2022-12-06T10:40:48.714Z,4.40
2022-12-06T10:43:28.054Z,4.50
2022-12-06T10:46:41.715Z,4.50
2022-12-06T10:49:35.982Z,4.50
2022-12-06T10:52:25.988Z,4.50
2022-12-06T10:55:28.015Z,4.60
2022-12-06T10:58:08.011Z,4.50
2022-12-06T11:00:57.020Z,4.50
2022-12-06T11:03:26.663Z,4.60
2022-12-06T11:06:02.443Z,4.60
2022-12-06T11:08:36.966Z,4.50
2022-12-06T11:11:10.261Z,4.50
2022-12-06T11:13:53.431Z,4.40
2022-12-06T11:16:41.002Z,4.40
2022-12-06T11:19:34.069Z,4.30
2022-12-06T11:22:32.085Z,4.40
2022-12-06T11:25:14.481Z,4.40
2022-12-06T11:27:59.431Z,4.40
2022-12-06T11:30:28.129Z,4.40
2022-12-06T11:32:55.574Z,4.50
2022-12-06T11:35:26.283Z,4.50
2022-12-06T11:37:58.175Z,4.50
2022-12-06T11:40:28.732Z,4.40
2022-12-06T11:42:58.511Z,4.40
2022-12-06T11:45:29.687Z,4.40
2022-12-06T11:47:59.335Z,4.50
2022-12-06T11:50:29.575Z,4.50
2022-12-06T11:53:03.850Z,4.30
2022-12-06T11:55:36.550Z,4.30
2022-12-06T11:58:08.561Z,4.40
2022-12-06T12:00:35.482Z,4.50
2022-12-06T12:03:02.249Z,4.60
2022-12-06T12:05:34.154Z,4.60
2022-12-06T12:08:05.489Z,4.50
2022-12-06T12:10:40.846Z,4.50
2022-12-06T12:13:37.515Z,4.40
2022-12-06T12:16:07.863Z,4.50
2022-12-06T12:18:41.708Z,4.50
2022-12-06T12:21:08.869Z,4.50
2022-12-06T12:23:47.125Z,4.50
2022-12-06T12:26:16.532Z,4.60
2022-12-06T12:28:45.940Z,4.40
2022-12-06T12:31:21.177Z,4.40
2022-12-06T12:33:48.400Z,4.40
2022-12-06T12:36:33.164Z,4.40
2022-12-06T12:39:01.015Z,4.40
2022-12-06T12:41:43.917Z,4.40
2022-12-06T12:44:39.255Z,4.50
2022-12-06T12:47:20.598Z,4.40
2022-12-06T12:50:11.594Z,4.30
2022-12-06T12:52:41.242Z,4.40
2022-12-06T12:55:21.471Z,4.40
2022-12-06T12:57:56.789Z,4.30
2022-12-06T13:00:25.868Z,4.40
2022-12-06T13:02:58.998Z,4.40
2022-12-06T13:05:33.654Z,4.40
2022-12-06T13:08:26.430Z,4.40
2022-12-06T13:10:59.315Z,4.40
2022-12-06T13:13:44.543Z,4.50
2022-12-06T13:16:14.773Z,4.50
2022-12-06T13:18:52.635Z,4.40
2022-12-06T13:21:25.610Z,4.40
2022-12-06T13:24:02.529Z,4.40
2022-12-06T13:26:33.163Z,4.50
2022-12-06T13:29:06.051Z,4.50
2022-12-06T13:31:36.491Z,4.50
2022-12-06T13:34:14.422Z,4.50
2022-12-06T13:36:41.261Z,4.50
2022-12-06T13:39:50.222Z,4.40
2022-12-06T13:42:38.010Z,4.40
2022-12-06T13:45:26.132Z,4.30
2022-12-06T13:47:52.832Z,4.40
2022-12-06T13:50:19.437Z,4.30
2022-12-06T13:52:46.021Z,4.30
2022-12-06T13:55:25.035Z,4.40
2022-12-06T13:58:00.824Z,4.40
2022-12-06T14:00:30.203Z,4.40
2022-12-06T14:03:15.855Z,4.30
2022-12-06T14:06:04.069Z,4.40
2022-12-06T14:08:47.105Z,4.30
2022-12-06T14:11:14.625Z,4.40
2022-12-06T14:13:43.220Z,4.30
2022-12-06T14:16:33.500Z,4.40
2022-12-06T14:19:02.631Z,4.40
2022-12-06T14:21:39.128Z,4.40
2022-12-06T14:24:05.955Z,4.50
2022-12-06T14:26:35.581Z,4.50
2022-12-06T14:29:02.439Z,4.50
2022-12-06T14:31:35.002Z,4.40
2022-12-06T14:34:02.011Z,4.50
2022-12-06T14:36:30.290Z,4.40
2022-12-06T14:39:03.301Z,4.50
2022-12-06T14:41:51.768Z,4.50
2022-12-06T14:44:20.608Z,4.60
2022-12-06T14:46:48.948Z,4.50
2022-12-06T14:49:40.176Z,4.60
2022-12-06T14:52:22.137Z,4.70
2022-12-06T14:54:50.193Z,4.50
2022-12-06T14:57:22.427Z,4.50
2022-12-06T15:03:18.606Z,4.60
2022-12-06T15:05:51.851Z,4.70
2022-12-06T15:08:27.395Z,4.60
2022-12-06T15:11:05.437Z,4.70
2022-12-06T15:13:32.536Z,4.60
2022-12-06T15:16:11.845Z,4.50
2022-12-06T15:18:45.754Z,4.60
2022-12-06T15:21:17.431Z,4.60
2022-12-06T15:23:55.585Z,4.50
2022-12-06T15:26:23.979Z,4.40
2022-12-06T15:28:51.041Z,4.50
2022-12-06T15:31:26.498Z,4.40
2022-12-06T15:33:53.644Z,4.50
2022-12-06T15:36:35.043Z,4.50
2022-12-06T15:39:01.722Z,4.50
2022-12-06T15:41:29.277Z,4.60
2022-12-06T15:43:58.884Z,4.60
2022-12-06T15:46:29.381Z,4.50
2022-12-06T15:48:56.629Z,4.60
2022-12-06T15:51:26.364Z,4.60
2022-12-06T15:53:55.191Z,4.50
2022-12-06T15:56:23.698Z,4.50
2022-12-06T15:58:51.567Z,4.50
2022-12-06T16:01:37.131Z,4.50
2022-12-06T16:04:07.508Z,4.40
2022-12-06T16:06:34.193Z,4.30
2022-12-06T16:09:00.916Z,4.30
2022-12-06T16:11:27.551Z,4.40
2022-12-06T16:13:54.423Z,4.30
2022-12-06T16:16:22.537Z,4.30
2022-12-06T16:18:50.040Z,4.40
2022-12-06T16:21:25.793Z,4.50
2022-12-06T16:24:12.924Z,4.40
2022-12-06T16:26:43.848Z,4.40
2022-12-06T16:29:17.397Z,4.50
2022-12-06T16:31:45.402Z,4.30
2022-12-06T16:34:12.752Z,4.50
2022-12-06T16:37:00.728Z,4.50
2022-12-06T16:39:28.873Z,4.50
2022-12-06T16:41:55.552Z,4.50
2022-12-06T16:44:22.702Z,4.30
2022-12-06T16:46:49.662Z,4.40
2022-12-06T16:49:45.679Z,4.50
2022-12-06T16:52:13.485Z,4.50
2022-12-06T17:02:24.037Z,4.30
2022-12-06T17:04:50.686Z,4.40
2022-12-06T17:07:17.328Z,4.40
2022-12-06T17:16:40.850Z,4.50
2022-12-06T17:22:54.394Z,4.30
2022-12-06T17:28:54.631Z,4.50
2022-12-06T17:32:08.158Z,4.40
2022-12-06T17:46:21.801Z,4.40
2022-12-06T17:50:03.628Z,4.50
2022-12-06T17:52:30.450Z,4.50
2022-12-06T17:55:03.655Z,4.50
2022-12-06T17:57:30.566Z,4.40
2022-12-06T17:59:57.268Z,4.30
2022-12-06T18:02:25.670Z,4.40
2022-12-06T18:04:53.857Z,4.40
2022-12-06T18:11:27.404Z,4.30
2022-12-06T18:14:50.396Z,4.20
2022-12-06T18:17:17.038Z,4.20
2022-12-06T18:22:48.287Z,4.30
2022-12-06T18:25:14.991Z,4.40
2022-12-06T19:22:28.976Z,4.30
2022-12-06T19:24:55.627Z,4.30
2022-12-06T19:27:25.315Z,4.30
2022-12-06T19:29:52.247Z,4.30
2022-12-06T19:32:18.873Z,4.30
2022-12-06T19:34:45.727Z,4.30
2022-12-06T19:37:12.470Z,4.40
2022-12-06T19:39:39.077Z,4.40
2022-12-06T19:42:24.522Z,4.30
2022-12-06T19:44:51.153Z,4.30
2022-12-06T19:47:17.794Z,4.20
2022-12-06T19:49:44.440Z,4.20
2022-12-06T19:52:11.143Z,4.20
2022-12-06T19:54:38.089Z,4.20
2022-12-06T19:57:05.102Z,4.30
2022-12-06T19:59:34.464Z,4.30
2022-12-06T20:02:02.146Z,4.30
2022-12-06T20:04:32.029Z,4.20
2022-12-06T20:06:59.737Z,4.20
2022-12-06T20:09:27.855Z,4.30
2022-12-06T20:12:01.415Z,4.20
2022-12-06T20:14:45.644Z,4.20
2022-12-06T20:17:14.873Z,4.20
2022-12-06T20:19:43.240Z,4.10
2022-12-06T20:22:10.808Z,4.20
2022-12-06T20:24:37.589Z,4.10
2022-12-06T20:27:04.657Z,4.30
2022-12-06T20:29:32.507Z,4.30
2022-12-06T20:32:00.088Z,4.30
2022-12-06T20:34:29.587Z,4.30
2022-12-06T20:36:57.200Z,4.40
2022-12-06T20:39:26.535Z,4.40
2022-12-06T20:41:53.906Z,4.40
2022-12-06T20:44:21.132Z,4.40
2022-12-06T20:46:51.451Z,4.40
2022-12-06T20:49:18.247Z,4.40
2022-12-06T20:51:49.697Z,4.40
2022-12-06T20:54:19.221Z,4.40
2022-12-06T20:56:47.039Z,4.50
2022-12-06T20:59:13.728Z,4.20
2022-12-06T21:01:41.360Z,4.30
2022-12-06T21:04:11.653Z,4.40
2022-12-06T21:06:38.312Z,4.40
2022-12-06T21:09:05.110Z,4.40
2022-12-06T21:11:31.792Z,4.40
2022-12-06T21:13:58.425Z,4.40
2022-12-06T21:16:30.292Z,4.40
2022-12-06T21:19:05.911Z,4.40
2022-12-06T21:21:38.085Z,4.40
2022-12-06T21:24:07.247Z,4.20
2022-12-06T21:26:34.705Z,4.20
2022-12-06T21:29:01.417Z,4.20
2022-12-06T21:31:33.549Z,4.30
2022-12-06T21:34:00.348Z,4.20
2022-12-06T21:36:27.314Z,4.30
2022-12-06T21:38:54.060Z,4.30
2022-12-06T21:41:21.167Z,4.20
2022-12-06T21:43:48.156Z,4.10
2022-12-06T21:46:17.296Z,4.20
2022-12-06T21:48:48.883Z,4.20
2022-12-06T21:51:16.735Z,4.30
2022-12-06T21:53:43.363Z,4.30
2022-12-06T21:56:14.619Z,4.20
2022-12-06T21:58:41.296Z,4.30
2022-12-06T22:01:11.222Z,4.10
2022-12-06T22:03:38.644Z,4.20
2022-12-06T22:06:10.353Z,4.30
2022-12-06T22:08:38.054Z,4.30
2022-12-06T22:11:12.835Z,4.30
2022-12-06T22:13:40.081Z,4.30
2022-12-06T22:16:09.113Z,4.30
2022-12-06T22:18:44.078Z,4.30
2022-12-06T22:21:15.016Z,4.30
2022-12-06T22:23:42.651Z,4.30
2022-12-06T22:26:13.981Z,4.20
2022-12-06T22:28:40.625Z,4.20
2022-12-06T22:31:16.532Z,4.20
2022-12-06T22:33:43.683Z,4.10
2022-12-06T22:36:11.611Z,4.10
2022-12-06T22:38:38.386Z,4.10
2022-12-06T22:41:06.089Z,4.10
2022-12-06T22:43:33.422Z,4.20
2022-12-06T22:46:08.362Z,4.20
2022-12-06T22:48:35.211Z,4.10
2022-12-06T22:51:29.699Z,4.20
2022-12-06T22:53:59.089Z,4.20
2022-12-06T22:56:26.623Z,4.20
2022-12-06T22:58:57.723Z,4.10
2022-12-06T23:01:27.186Z,4.10
2022-12-06T23:03:54.532Z,4.10
2022-12-06T23:06:24.319Z,4.10
2022-12-06T23:08:51.792Z,4.00
2022-12-06T23:11:21.271Z,4.00
2022-12-06T23:13:48.380Z,3.90
2022-12-06T23:16:17.101Z,3.90
2022-12-06T23:18:44.143Z,3.70
2022-12-06T23:21:17.112Z,3.70
2022-12-06T23:23:50.081Z,3.70
2022-12-06T23:26:19.619Z,3.60
2022-12-06T23:28:46.895Z,3.50
2022-12-06T23:31:17.693Z,3.60
2022-12-06T23:33:45.479Z,3.50
2022-12-06T23:36:16.357Z,3.50
2022-12-06T23:38:43.416Z,3.40
2022-12-06T23:41:15.387Z,3.30
2022-12-06T23:43:42.698Z,3.30
2022-12-06T23:46:12.226Z,3.20
2022-12-06T23:48:39.521Z,3.20
2022-12-06T23:51:09.090Z,3.20
2022-12-06T23:53:36.575Z,3.30
2022-12-06T23:56:13.730Z,3.30
2022-12-06T23:58:41.418Z,3.20
